sensor_id;sensor_type;location;lat;lon;timestamp;temperature;humidity
66140;DHT22;52945;51.908;8.364;2022-12-07T00:01:38;6.70;81.90
66140;DHT22;52945;51.908;8.364;2022-12-07T00:04:39;6.80;81.80
66140;DHT22;52945;51.908;8.364;2022-12-07T00:07:39;6.80;81.90
66140;DHT22;52945;51.908;8.364;2022-12-07T00:10:40;6.80;81.90
66140;DHT22;52945;51.908;8.364;2022-12-07T00:13:41;6.80;81.90
66140;DHT22;52945;51.908;8.364;2022-12-07T00:16:43;6.80;81.80
66140;DHT22;52945;51.908;8.364;2022-12-07T00:19:44;6.90;82.00
66140;DHT22;52945;51.908;8.364;2022-12-07T00:22:44;6.90;81.90
66140;DHT22;52945;51.908;8.364;2022-12-07T00:25:45;6.90;81.80
66140;DHT22;52945;51.908;8.364;2022-12-07T00:28:50;6.90;81.80
66140;DHT22;52945;51.908;8.364;2022-12-07T00:31:51;6.80;82.00
66140;DHT22;52945;51.908;8.364;2022-12-07T00:34:52;6.90;82.00
66140;DHT22;52945;51.908;8.364;2022-12-07T00:37:52;6.90;82.00
66140;DHT22;52945;51.908;8.364;2022-12-07T00:41:01;6.90;81.90
66140;DHT22;52945;51.908;8.364;2022-12-07T00:44:02;6.90;81.90
66140;DHT22;52945;51.908;8.364;2022-12-07T00:47:02;6.90;81.90
66140;DHT22;52945;51.908;8.364;2022-12-07T00:50:03;7.00;81.90
66140;DHT22;52945;51.908;8.364;2022-12-07T00:53:04;6.90;81.70
66140;DHT22;52945;51.908;8.364;2022-12-07T00:56:06;6.90;82.00
66140;DHT22;52945;51.908;8.364;2022-12-07T00:59:07;7.00;82.00
66140;DHT22;52945;51.908;8.364;2022-12-07T01:02:07;6.90;81.80
66140;DHT22;52945;51.908;8.364;2022-12-07T01:05:08;6.90;81.80
66140;DHT22;52945;51.908;8.364;2022-12-07T01:08:08;7.00;81.80
66140;DHT22;52945;51.908;8.364;2022-12-07T01:11:14;7.00;81.80
66140;DHT22;52945;51.908;8.364;2022-12-07T01:14:15;7.00;81.80
66140;DHT22;52945;51.908;8.364;2022-12-07T01:17:15;7.00;81.80
66140;DHT22;52945;51.908;8.364;2022-12-07T01:20:16;7.00;81.70
66140;DHT22;52945;51.908;8.364;2022-12-07T01:23:16;7.00;81.70
66140;DHT22;52945;51.908;8.364;2022-12-07T01:26:20;7.00;81.60
66140;DHT22;52945;51.908;8.364;2022-12-07T01:29:21;7.00;81.80
66140;DHT22;52945;51.908;8.364;2022-12-07T01:32:21;7.10;81.70
66140;DHT22;52945;51.908;8.364;2022-12-07T01:35:22;7.10;81.60
66140;DHT22;52945;51.908;8.364;2022-12-07T01:38:22;7.00;81.60
66140;DHT22;52945;51.908;8.364;2022-12-07T01:41:25;7.10;81.60
66140;DHT22;52945;51.908;8.364;2022-12-07T01:44:28;7.10;81.60
66140;DHT22;52945;51.908;8.364;2022-12-07T01:47:33;7.10;81.60
66140;DHT22;52945;51.908;8.364;2022-12-07T01:50:34;7.10;81.50
66140;DHT22;52945;51.908;8.364;2022-12-07T01:53:40;7.10;81.50
66140;DHT22;52945;51.908;8.364;2022-12-07T01:56:48;7.10;81.50
66140;DHT22;52945;51.908;8.364;2022-12-07T01:59:51;7.10;81.40
66140;DHT22;52945;51.908;8.364;2022-12-07T02:06:11;7.10;81.50
66140;DHT22;52945;51.908;8.364;2022-12-07T02:09:12;7.10;81.50
66140;DHT22;52945;51.908;8.364;2022-12-07T02:12:13;7.10;81.50
66140;DHT22;52945;51.908;8.364;2022-12-07T02:15:13;7.10;81.40
66140;DHT22;52945;51.908;8.364;2022-12-07T02:18:22;7.10;81.40
66140;DHT22;52945;51.908;8.364;2022-12-07T02:24:48;7.10;81.40
66140;DHT22;52945;51.908;8.364;2022-12-07T02:28:07;7.10;81.30
66140;DHT22;52945;51.908;8.364;2022-12-07T02:31:18;7.10;81.40
66140;DHT22;52945;51.908;8.364;2022-12-07T02:34:26;7.10;81.30
66140;DHT22;52945;51.908;8.364;2022-12-07T02:40:51;7.10;81.10
66140;DHT22;52945;51.908;8.364;2022-12-07T02:44:06;7.10;81.30
66140;DHT22;52945;51.908;8.364;2022-12-07T02:47:09;7.10;81.20
66140;DHT22;52945;51.908;8.364;2022-12-07T02:50:11;7.10;81.10
66140;DHT22;52945;51.908;8.364;2022-12-07T02:56:44;7.10;80.90
66140;DHT22;52945;51.908;8.364;2022-12-07T03:03:10;7.10;80.90
66140;DHT22;52945;51.908;8.364;2022-12-07T03:06:37;7.10;80.70
66140;DHT22;52945;51.908;8.364;2022-12-07T03:16:35;7.00;80.40
66140;DHT22;52945;51.908;8.364;2022-12-07T03:19:37;7.00;80.40
66140;DHT22;52945;51.908;8.364;2022-12-07T03:22:40;7.00;80.50
66140;DHT22;52945;51.908;8.364;2022-12-07T03:25:46;7.00;80.20
66140;DHT22;52945;51.908;8.364;2022-12-07T03:28:52;7.00;80.00
66140;DHT22;52945;51.908;8.364;2022-12-07T03:32:09;6.90;80.00
66140;DHT22;52945;51.908;8.364;2022-12-07T03:35:20;6.90;80.20
66140;DHT22;52945;51.908;8.364;2022-12-07T03:38:31;6.90;80.20
66140;DHT22;52945;51.908;8.364;2022-12-07T03:41:34;6.80;80.10
66140;DHT22;52945;51.908;8.364;2022-12-07T03:44:36;6.80;80.00
66140;DHT22;52945;51.908;8.364;2022-12-07T03:50:54;6.80;80.00
66140;DHT22;52945;51.908;8.364;2022-12-07T03:54:01;6.80;80.00
66140;DHT22;52945;51.908;8.364;2022-12-07T03:57:03;6.80;79.70
66140;DHT22;52945;51.908;8.364;2022-12-07T04:00:05;6.70;79.90
66140;DHT22;52945;51.908;8.364;2022-12-07T04:03:06;6.70;79.90
66140;DHT22;52945;51.908;8.364;2022-12-07T04:06:07;6.70;79.70
66140;DHT22;52945;51.908;8.364;2022-12-07T04:09:08;6.70;79.80
66140;DHT22;52945;51.908;8.364;2022-12-07T04:12:08;6.60;79.80
66140;DHT22;52945;51.908;8.364;2022-12-07T04:15:09;6.60;79.50
66140;DHT22;52945;51.908;8.364;2022-12-07T04:18:10;6.60;79.60
66140;DHT22;52945;51.908;8.364;2022-12-07T04:21:10;6.60;79.50
66140;DHT22;52945;51.908;8.364;2022-12-07T04:24:13;6.60;79.70
66140;DHT22;52945;51.908;8.364;2022-12-07T04:27:13;6.60;79.70
66140;DHT22;52945;51.908;8.364;2022-12-07T04:30:14;6.50;79.60
66140;DHT22;52945;51.908;8.364;2022-12-07T04:33:15;6.50;79.70
66140;DHT22;52945;51.908;8.364;2022-12-07T04:36:16;6.50;79.60
66140;DHT22;52945;51.908;8.364;2022-12-07T04:42:22;6.50;79.70
66140;DHT22;52945;51.908;8.364;2022-12-07T04:45:23;6.50;79.80
66140;DHT22;52945;51.908;8.364;2022-12-07T04:48:23;6.50;79.70
66140;DHT22;52945;51.908;8.364;2022-12-07T04:51:28;6.40;79.70
66140;DHT22;52945;51.908;8.364;2022-12-07T04:54:29;6.40;79.70
66140;DHT22;52945;51.908;8.364;2022-12-07T04:57:30;6.40;79.50
66140;DHT22;52945;51.908;8.364;2022-12-07T05:00:30;6.30;79.60
66140;DHT22;52945;51.908;8.364;2022-12-07T05:03:31;6.40;79.80
66140;DHT22;52945;51.908;8.364;2022-12-07T05:06:31;6.30;79.70
66140;DHT22;52945;51.908;8.364;2022-12-07T05:09:32;6.30;79.70
66140;DHT22;52945;51.908;8.364;2022-12-07T05:12:33;6.30;79.60
66140;DHT22;52945;51.908;8.364;2022-12-07T05:15:33;6.20;79.70
66140;DHT22;52945;51.908;8.364;2022-12-07T05:18:34;6.20;79.70
66140;DHT22;52945;51.908;8.364;2022-12-07T05:21:35;6.20;79.50
66140;DHT22;52945;51.908;8.364;2022-12-07T05:24:36;6.20;79.60
66140;DHT22;52945;51.908;8.364;2022-12-07T05:27:36;6.10;79.70
66140;DHT22;52945;51.908;8.364;2022-12-07T05:30:37;6.20;79.80
66140;DHT22;52945;51.908;8.364;2022-12-07T05:33:37;6.10;79.60
66140;DHT22;52945;51.908;8.364;2022-12-07T05:36:38;6.20;79.60
66140;DHT22;52945;51.908;8.364;2022-12-07T05:39:39;6.10;79.80
66140;DHT22;52945;51.908;8.364;2022-12-07T05:42:41;6.10;79.80
66140;DHT22;52945;51.908;8.364;2022-12-07T05:45:42;6.10;79.60
66140;DHT22;52945;51.908;8.364;2022-12-07T05:48:42;6.00;79.70
66140;DHT22;52945;51.908;8.364;2022-12-07T05:51:43;6.10;79.90
66140;DHT22;52945;51.908;8.364;2022-12-07T05:54:43;6.00;79.80
66140;DHT22;52945;51.908;8.364;2022-12-07T05:57:44;6.10;79.80
66140;DHT22;52945;51.908;8.364;2022-12-07T06:01:05;6.10;79.70
66140;DHT22;52945;51.908;8.364;2022-12-07T06:04:05;6.00;79.80
66140;DHT22;52945;51.908;8.364;2022-12-07T06:07:06;6.00;79.70
66140;DHT22;52945;51.908;8.364;2022-12-07T06:10:07;6.00;79.80
66140;DHT22;52945;51.908;8.364;2022-12-07T06:13:08;6.00;79.70
66140;DHT22;52945;51.908;8.364;2022-12-07T06:16:09;5.90;79.90
66140;DHT22;52945;51.908;8.364;2022-12-07T06:19:10;6.00;79.90
66140;DHT22;52945;51.908;8.364;2022-12-07T06:22:11;5.90;79.90
66140;DHT22;52945;51.908;8.364;2022-12-07T06:25:11;5.90;79.80
66140;DHT22;52945;51.908;8.364;2022-12-07T06:28:12;5.90;79.80
66140;DHT22;52945;51.908;8.364;2022-12-07T06:31:13;5.90;79.80
66140;DHT22;52945;51.908;8.364;2022-12-07T06:34:18;5.90;79.70
66140;DHT22;52945;51.908;8.364;2022-12-07T06:37:19;5.80;79.70
66140;DHT22;52945;51.908;8.364;2022-12-07T06:40:20;5.90;79.80
66140;DHT22;52945;51.908;8.364;2022-12-07T06:43:20;5.90;79.80
66140;DHT22;52945;51.908;8.364;2022-12-07T06:46:22;5.90;79.80
66140;DHT22;52945;51.908;8.364;2022-12-07T06:49:22;5.80;79.70
66140;DHT22;52945;51.908;8.364;2022-12-07T06:52:23;5.80;79.70
66140;DHT22;52945;51.908;8.364;2022-12-07T06:55:23;5.80;79.70
66140;DHT22;52945;51.908;8.364;2022-12-07T06:58:24;5.70;79.80
66140;DHT22;52945;51.908;8.364;2022-12-07T07:01:25;5.70;79.80
66140;DHT22;52945;51.908;8.364;2022-12-07T07:04:26;5.70;79.70
66140;DHT22;52945;51.908;8.364;2022-12-07T07:07:26;5.70;79.70
66140;DHT22;52945;51.908;8.364;2022-12-07T07:10:27;5.70;79.70
66140;DHT22;52945;51.908;8.364;2022-12-07T07:13:27;5.70;79.70
66140;DHT22;52945;51.908;8.364;2022-12-07T07:16:29;5.60;79.70
66140;DHT22;52945;51.908;8.364;2022-12-07T07:19:30;5.60;79.70
66140;DHT22;52945;51.908;8.364;2022-12-07T07:22:31;5.60;79.60
66140;DHT22;52945;51.908;8.364;2022-12-07T07:25:32;5.60;79.60
66140;DHT22;52945;51.908;8.364;2022-12-07T07:28:32;5.50;79.60
66140;DHT22;52945;51.908;8.364;2022-12-07T07:31:33;5.60;79.70
66140;DHT22;52945;51.908;8.364;2022-12-07T07:34:35;5.50;79.70
66140;DHT22;52945;51.908;8.364;2022-12-07T07:37:36;5.50;79.60
66140;DHT22;52945;51.908;8.364;2022-12-07T07:40:36;5.50;79.60
66140;DHT22;52945;51.908;8.364;2022-12-07T07:43:37;5.40;79.60
66140;DHT22;52945;51.908;8.364;2022-12-07T07:46:38;5.40;79.50
66140;DHT22;52945;51.908;8.364;2022-12-07T07:49:38;5.40;79.70
66140;DHT22;52945;51.908;8.364;2022-12-07T07:52:39;5.40;79.60
66140;DHT22;52945;51.908;8.364;2022-12-07T07:55:40;5.40;79.60
66140;DHT22;52945;51.908;8.364;2022-12-07T07:58:40;5.40;79.50
66140;DHT22;52945;51.908;8.364;2022-12-07T08:01:41;5.40;79.60
66140;DHT22;52945;51.908;8.364;2022-12-07T08:04:42;5.40;79.60
66140;DHT22;52945;51.908;8.364;2022-12-07T08:07:43;5.40;79.60
66140;DHT22;52945;51.908;8.364;2022-12-07T08:10:44;5.40;79.60
66140;DHT22;52945;51.908;8.364;2022-12-07T08:13:47;5.40;79.70
66140;DHT22;52945;51.908;8.364;2022-12-07T08:16:47;5.40;79.60
66140;DHT22;52945;51.908;8.364;2022-12-07T08:19:48;5.30;79.90
66140;DHT22;52945;51.908;8.364;2022-12-07T08:22:49;5.40;79.90
66140;DHT22;52945;51.908;8.364;2022-12-07T08:25:49;5.50;79.80
66140;DHT22;52945;51.908;8.364;2022-12-07T08:28:50;5.50;79.80
66140;DHT22;52945;51.908;8.364;2022-12-07T08:31:50;5.50;79.60
66140;DHT22;52945;51.908;8.364;2022-12-07T08:34:52;5.60;79.70
66140;DHT22;52945;51.908;8.364;2022-12-07T08:37:52;5.60;79.50
66140;DHT22;52945;51.908;8.364;2022-12-07T08:40:57;5.60;79.10
66140;DHT22;52945;51.908;8.364;2022-12-07T08:43:58;5.60;79.00
66140;DHT22;52945;51.908;8.364;2022-12-07T08:47:02;5.60;79.30
66140;DHT22;52945;51.908;8.364;2022-12-07T08:50:06;5.60;79.10
66140;DHT22;52945;51.908;8.364;2022-12-07T08:53:07;5.70;79.10
66140;DHT22;52945;51.908;8.364;2022-12-07T08:56:08;5.60;79.00
66140;DHT22;52945;51.908;8.364;2022-12-07T08:59:09;5.60;79.00
66140;DHT22;52945;51.908;8.364;2022-12-07T09:02:11;5.60;79.00
66140;DHT22;52945;51.908;8.364;2022-12-07T09:05:12;5.70;79.00
66140;DHT22;52945;51.908;8.364;2022-12-07T09:08:15;5.60;79.00
66140;DHT22;52945;51.908;8.364;2022-12-07T09:11:16;5.70;79.20
66140;DHT22;52945;51.908;8.364;2022-12-07T09:14:16;5.70;79.20
66140;DHT22;52945;51.908;8.364;2022-12-07T09:17:17;5.70;79.30
66140;DHT22;52945;51.908;8.364;2022-12-07T09:20:18;5.80;79.10
66140;DHT22;52945;51.908;8.364;2022-12-07T09:23:18;5.80;79.20
66140;DHT22;52945;51.908;8.364;2022-12-07T09:26:19;5.90;79.50
66140;DHT22;52945;51.908;8.364;2022-12-07T09:29:19;6.00;79.20
66140;DHT22;52945;51.908;8.364;2022-12-07T09:32:20;6.10;79.20
66140;DHT22;52945;51.908;8.364;2022-12-07T09:35:21;6.10;79.10
66140;DHT22;52945;51.908;8.364;2022-12-07T09:38:22;6.20;78.90
66140;DHT22;52945;51.908;8.364;2022-12-07T09:41:25;6.30;78.80
66140;DHT22;52945;51.908;8.364;2022-12-07T09:44:27;6.30;78.20
66140;DHT22;52945;51.908;8.364;2022-12-07T09:47:29;6.40;78.10
66140;DHT22;52945;51.908;8.364;2022-12-07T09:50:30;6.30;78.20
66140;DHT22;52945;51.908;8.364;2022-12-07T09:53:36;6.50;78.20
66140;DHT22;52945;51.908;8.364;2022-12-07T09:56:38;6.50;78.30
66140;DHT22;52945;51.908;8.364;2022-12-07T09:59:39;6.60;78.20
66140;DHT22;52945;51.908;8.364;2022-12-07T10:05:49;6.70;77.60
66140;DHT22;52945;51.908;8.364;2022-12-07T10:08:50;6.70;77.80
66140;DHT22;52945;51.908;8.364;2022-12-07T10:12:08;6.70;77.50
66140;DHT22;52945;51.908;8.364;2022-12-07T10:15:09;6.70;77.20
66140;DHT22;52945;51.908;8.364;2022-12-07T10:18:35;6.70;77.20
66140;DHT22;52945;51.908;8.364;2022-12-07T10:21:38;6.70;77.30
66140;DHT22;52945;51.908;8.364;2022-12-07T10:24:40;6.70;77.40
66140;DHT22;52945;51.908;8.364;2022-12-07T10:27:42;6.80;77.30
66140;DHT22;52945;51.908;8.364;2022-12-07T10:34:00;6.80;77.20
66140;DHT22;52945;51.908;8.364;2022-12-07T10:40:34;6.70;77.20
66140;DHT22;52945;51.908;8.364;2022-12-07T10:43:35;6.80;77.40
66140;DHT22;52945;51.908;8.364;2022-12-07T10:46:50;6.70;77.30
66140;DHT22;52945;51.908;8.364;2022-12-07T10:50:17;6.90;77.60
66140;DHT22;52945;51.908;8.364;2022-12-07T10:53:58;7.00;77.30
66140;DHT22;52945;51.908;8.364;2022-12-07T11:00:24;7.10;76.60
66140;DHT22;52945;51.908;8.364;2022-12-07T11:03:34;7.20;76.70
66140;DHT22;52945;51.908;8.364;2022-12-07T11:06:46;7.30;76.80
66140;DHT22;52945;51.908;8.364;2022-12-07T11:13:25;7.40;75.80
66140;DHT22;52945;51.908;8.364;2022-12-07T11:23:13;7.40;75.50
66140;DHT22;52945;51.908;8.364;2022-12-07T11:30:01;7.30;75.70
66140;DHT22;52945;51.908;8.364;2022-12-07T11:36:44;7.20;75.90
66140;DHT22;52945;51.908;8.364;2022-12-07T11:39:49;7.20;76.00
66140;DHT22;52945;51.908;8.364;2022-12-07T11:42:52;7.30;76.00
66140;DHT22;52945;51.908;8.364;2022-12-07T11:46:06;7.20;76.00
66140;DHT22;52945;51.908;8.364;2022-12-07T11:49:36;7.30;76.00
66140;DHT22;52945;51.908;8.364;2022-12-07T11:52:58;7.20;76.10
66140;DHT22;52945;51.908;8.364;2022-12-07T11:56:29;7.30;76.30
66140;DHT22;52945;51.908;8.364;2022-12-07T11:59:38;7.30;76.40
66140;DHT22;52945;51.908;8.364;2022-12-07T12:03:02;7.50;76.10
66140;DHT22;52945;51.908;8.364;2022-12-07T12:06:04;7.50;76.00
66140;DHT22;52945;51.908;8.364;2022-12-07T12:09:17;7.60;75.60
66140;DHT22;52945;51.908;8.364;2022-12-07T12:12:37;7.60;75.60
66140;DHT22;52945;51.908;8.364;2022-12-07T12:22:33;7.70;75.60
66140;DHT22;52945;51.908;8.364;2022-12-07T12:25:45;7.80;75.20
66140;DHT22;52945;51.908;8.364;2022-12-07T12:28:50;7.90;75.30
66140;DHT22;52945;51.908;8.364;2022-12-07T12:32:46;8.10;75.70
66140;DHT22;52945;51.908;8.364;2022-12-07T12:39:17;8.20;73.50
66140;DHT22;52945;51.908;8.364;2022-12-07T12:42:19;8.30;73.10
66140;DHT22;52945;51.908;8.364;2022-12-07T12:45:22;8.30;73.50
66140;DHT22;52945;51.908;8.364;2022-12-07T12:48:35;8.40;73.20
66140;DHT22;52945;51.908;8.364;2022-12-07T12:51:38;8.30;72.90
66140;DHT22;52945;51.908;8.364;2022-12-07T12:55:11;8.30;72.70
66140;DHT22;52945;51.908;8.364;2022-12-07T13:01:40;8.20;72.70
66140;DHT22;52945;51.908;8.364;2022-12-07T13:08:21;8.10;73.00
66140;DHT22;52945;51.908;8.364;2022-12-07T13:11:33;8.00;73.00
66140;DHT22;52945;51.908;8.364;2022-12-07T13:20:50;7.90;73.20
66140;DHT22;52945;51.908;8.364;2022-12-07T13:23:57;7.90;73.60
66140;DHT22;52945;51.908;8.364;2022-12-07T13:26:59;7.90;73.60
66140;DHT22;52945;51.908;8.364;2022-12-07T13:30:00;7.90;73.70
66140;DHT22;52945;51.908;8.364;2022-12-07T13:33:03;7.90;73.80
66140;DHT22;52945;51.908;8.364;2022-12-07T13:36:18;7.90;73.70
66140;DHT22;52945;51.908;8.364;2022-12-07T13:39:22;7.90;74.00
66140;DHT22;52945;51.908;8.364;2022-12-07T13:42:31;8.00;74.00
66140;DHT22;52945;51.908;8.364;2022-12-07T13:45:33;7.90;73.90
66140;DHT22;52945;51.908;8.364;2022-12-07T13:48:50;7.90;73.90
66140;DHT22;52945;51.908;8.364;2022-12-07T13:51:51;7.90;73.80
66140;DHT22;52945;51.908;8.364;2022-12-07T13:58:05;7.90;73.40
66140;DHT22;52945;51.908;8.364;2022-12-07T14:01:07;7.90;73.40
66140;DHT22;52945;51.908;8.364;2022-12-07T14:07:30;7.90;73.40
66140;DHT22;52945;51.908;8.364;2022-12-07T14:10:57;7.90;73.50
66140;DHT22;52945;51.908;8.364;2022-12-07T14:14:01;7.80;73.40
66140;DHT22;52945;51.908;8.364;2022-12-07T14:17:20;7.80;73.50
66140;DHT22;52945;51.908;8.364;2022-12-07T14:23:32;7.80;73.40
66140;DHT22;52945;51.908;8.364;2022-12-07T14:26:32;7.80;73.40
66140;DHT22;52945;51.908;8.364;2022-12-07T14:29:33;7.80;73.30
66140;DHT22;52945;51.908;8.364;2022-12-07T14:32:38;7.80;73.50
66140;DHT22;52945;51.908;8.364;2022-12-07T14:35:38;7.70;73.40
66140;DHT22;52945;51.908;8.364;2022-12-07T14:38:41;7.70;73.50
66140;DHT22;52945;51.908;8.364;2022-12-07T14:41:41;7.60;73.10
66140;DHT22;52945;51.908;8.364;2022-12-07T14:44:51;7.60;73.30
66140;DHT22;52945;51.908;8.364;2022-12-07T14:47:51;7.50;73.20
66140;DHT22;52945;51.908;8.364;2022-12-07T14:50:52;7.60;73.40
66140;DHT22;52945;51.908;8.364;2022-12-07T14:53:53;7.50;73.40
66140;DHT22;52945;51.908;8.364;2022-12-07T14:56:54;7.40;73.40
66140;DHT22;52945;51.908;8.364;2022-12-07T14:59:54;7.50;73.50
66140;DHT22;52945;51.908;8.364;2022-12-07T15:02:55;7.40;73.40
66140;DHT22;52945;51.908;8.364;2022-12-07T15:05:56;7.40;73.70
66140;DHT22;52945;51.908;8.364;2022-12-07T15:08:56;7.30;73.60
66140;DHT22;52945;51.908;8.364;2022-12-07T15:11:57;7.30;73.70
66140;DHT22;52945;51.908;8.364;2022-12-07T15:14:58;7.20;73.90
66140;DHT22;52945;51.908;8.364;2022-12-07T15:17:58;7.20;74.00
66140;DHT22;52945;51.908;8.364;2022-12-07T15:20:59;7.20;74.00
66140;DHT22;52945;51.908;8.364;2022-12-07T15:23:59;7.10;74.20
66140;DHT22;52945;51.908;8.364;2022-12-07T15:27:00;7.10;74.30
66140;DHT22;52945;51.908;8.364;2022-12-07T15:30:00;7.10;74.50
66140;DHT22;52945;51.908;8.364;2022-12-07T15:33:01;7.10;74.60
66140;DHT22;52945;51.908;8.364;2022-12-07T15:36:02;7.10;74.70
66140;DHT22;52945;51.908;8.364;2022-12-07T15:39:03;7.00;74.80
66140;DHT22;52945;51.908;8.364;2022-12-07T15:42:03;7.00;74.80
66140;DHT22;52945;51.908;8.364;2022-12-07T15:45:05;7.00;75.00
66140;DHT22;52945;51.908;8.364;2022-12-07T15:48:06;7.00;75.00
66140;DHT22;52945;51.908;8.364;2022-12-07T15:51:08;6.90;75.10
66140;DHT22;52945;51.908;8.364;2022-12-07T15:54:19;6.90;75.20
66140;DHT22;52945;51.908;8.364;2022-12-07T15:57:20;6.90;75.10
66140;DHT22;52945;51.908;8.364;2022-12-07T16:00:21;6.90;75.20
66140;DHT22;52945;51.908;8.364;2022-12-07T16:03:21;6.90;75.00
66140;DHT22;52945;51.908;8.364;2022-12-07T16:06:22;6.80;75.20
66140;DHT22;52945;51.908;8.364;2022-12-07T16:09:23;6.80;75.20
66140;DHT22;52945;51.908;8.364;2022-12-07T16:12:23;6.80;75.10
66140;DHT22;52945;51.908;8.364;2022-12-07T16:15:25;6.80;75.30
66140;DHT22;52945;51.908;8.364;2022-12-07T16:18:27;6.80;75.30
66140;DHT22;52945;51.908;8.364;2022-12-07T16:21:27;6.70;75.20
66140;DHT22;52945;51.908;8.364;2022-12-07T16:24:28;6.70;75.20
66140;DHT22;52945;51.908;8.364;2022-12-07T16:27:29;6.70;75.20
66140;DHT22;52945;51.908;8.364;2022-12-07T16:30:29;6.70;75.40
66140;DHT22;52945;51.908;8.364;2022-12-07T16:33:30;6.70;75.30
66140;DHT22;52945;51.908;8.364;2022-12-07T16:36:30;6.70;75.20
66140;DHT22;52945;51.908;8.364;2022-12-07T16:39:32;6.70;75.30
66140;DHT22;52945;51.908;8.364;2022-12-07T16:42:34;6.70;75.30
66140;DHT22;52945;51.908;8.364;2022-12-07T16:45:36;6.70;75.40
66140;DHT22;52945;51.908;8.364;2022-12-07T16:48:38;6.70;75.50
66140;DHT22;52945;51.908;8.364;2022-12-07T16:51:40;6.60;75.30
66140;DHT22;52945;51.908;8.364;2022-12-07T16:54:42;6.60;75.50
66140;DHT22;52945;51.908;8.364;2022-12-07T16:57:43;6.60;75.50
66140;DHT22;52945;51.908;8.364;2022-12-07T17:00:44;6.60;75.40
66140;DHT22;52945;51.908;8.364;2022-12-07T17:03:46;6.60;75.30
66140;DHT22;52945;51.908;8.364;2022-12-07T17:06:46;6.60;75.40
66140;DHT22;52945;51.908;8.364;2022-12-07T17:09:47;6.60;75.40
66140;DHT22;52945;51.908;8.364;2022-12-07T17:12:48;6.60;75.40
66140;DHT22;52945;51.908;8.364;2022-12-07T17:16:03;6.60;75.40
66140;DHT22;52945;51.908;8.364;2022-12-07T17:19:13;6.60;75.50
66140;DHT22;52945;51.908;8.364;2022-12-07T17:22:14;6.60;75.50
66140;DHT22;52945;51.908;8.364;2022-12-07T17:28:18;6.50;75.40
66140;DHT22;52945;51.908;8.364;2022-12-07T17:31:20;6.60;75.50
66140;DHT22;52945;51.908;8.364;2022-12-07T17:34:21;6.50;75.60
66140;DHT22;52945;51.908;8.364;2022-12-07T17:37:21;6.50;75.60
66140;DHT22;52945;51.908;8.364;2022-12-07T17:40:22;6.40;75.50
66140;DHT22;52945;51.908;8.364;2022-12-07T17:43:22;6.50;75.90
66140;DHT22;52945;51.908;8.364;2022-12-07T17:46:23;6.50;75.90
66140;DHT22;52945;51.908;8.364;2022-12-07T17:49:25;6.50;75.90
66140;DHT22;52945;51.908;8.364;2022-12-07T17:52:26;6.50;75.90
66140;DHT22;52945;51.908;8.364;2022-12-07T17:55:45;6.50;75.60
66140;DHT22;52945;51.908;8.364;2022-12-07T17:58:45;6.50;75.60
66140;DHT22;52945;51.908;8.364;2022-12-07T18:01:46;6.40;75.60
66140;DHT22;52945;51.908;8.364;2022-12-07T18:04:47;6.40;75.60
66140;DHT22;52945;51.908;8.364;2022-12-07T18:07:47;6.50;75.50
66140;DHT22;52945;51.908;8.364;2022-12-07T18:10:48;6.50;75.60
66140;DHT22;52945;51.908;8.364;2022-12-07T18:13:49;6.50;75.70
66140;DHT22;52945;51.908;8.364;2022-12-07T18:16:50;6.40;75.80
66140;DHT22;52945;51.908;8.364;2022-12-07T18:19:50;6.50;75.80
66140;DHT22;52945;51.908;8.364;2022-12-07T18:22:51;6.40;75.90
66140;DHT22;52945;51.908;8.364;2022-12-07T18:25:52;6.50;76.10
66140;DHT22;52945;51.908;8.364;2022-12-07T18:28:52;6.40;76.30
66140;DHT22;52945;51.908;8.364;2022-12-07T18:31:53;6.40;76.50
66140;DHT22;52945;51.908;8.364;2022-12-07T18:34:54;6.40;76.50
66140;DHT22;52945;51.908;8.364;2022-12-07T18:37:54;6.40;76.50
66140;DHT22;52945;51.908;8.364;2022-12-07T18:40:55;6.40;76.60
66140;DHT22;52945;51.908;8.364;2022-12-07T18:43:56;6.40;76.50
66140;DHT22;52945;51.908;8.364;2022-12-07T18:46:57;6.40;76.50
66140;DHT22;52945;51.908;8.364;2022-12-07T18:49:58;6.40;76.70
66140;DHT22;52945;51.908;8.364;2022-12-07T18:53:01;6.40;76.80
66140;DHT22;52945;51.908;8.364;2022-12-07T18:56:05;6.40;76.90
66140;DHT22;52945;51.908;8.364;2022-12-07T18:59:06;6.40;76.80
66140;DHT22;52945;51.908;8.364;2022-12-07T19:02:25;6.40;76.90
66140;DHT22;52945;51.908;8.364;2022-12-07T19:05:26;6.40;77.10
66140;DHT22;52945;51.908;8.364;2022-12-07T19:08:29;6.40;77.10
66140;DHT22;52945;51.908;8.364;2022-12-07T19:11:31;6.40;77.00
66140;DHT22;52945;51.908;8.364;2022-12-07T19:14:50;6.40;77.20
66140;DHT22;52945;51.908;8.364;2022-12-07T19:17:51;6.40;77.20
66140;DHT22;52945;51.908;8.364;2022-12-07T19:20:52;6.40;77.20
66140;DHT22;52945;51.908;8.364;2022-12-07T19:23:52;6.40;77.20
66140;DHT22;52945;51.908;8.364;2022-12-07T19:26:54;6.40;77.40
66140;DHT22;52945;51.908;8.364;2022-12-07T19:29:54;6.40;77.30
66140;DHT22;52945;51.908;8.364;2022-12-07T19:32:55;6.40;77.30
66140;DHT22;52945;51.908;8.364;2022-12-07T19:35:56;6.30;77.20
66140;DHT22;52945;51.908;8.364;2022-12-07T19:38:56;6.40;77.10
66140;DHT22;52945;51.908;8.364;2022-12-07T19:41:57;6.40;77.00
66140;DHT22;52945;51.908;8.364;2022-12-07T19:44:58;6.40;77.10
66140;DHT22;52945;51.908;8.364;2022-12-07T19:47:59;6.40;77.10
66140;DHT22;52945;51.908;8.364;2022-12-07T19:51:04;6.30;77.10
66140;DHT22;52945;51.908;8.364;2022-12-07T19:54:05;6.40;76.90
66140;DHT22;52945;51.908;8.364;2022-12-07T19:57:06;6.40;76.80
66140;DHT22;52945;51.908;8.364;2022-12-07T20:00:09;6.30;76.90
66140;DHT22;52945;51.908;8.364;2022-12-07T20:03:09;6.30;76.70
66140;DHT22;52945;51.908;8.364;2022-12-07T20:06:12;6.40;76.60
66140;DHT22;52945;51.908;8.364;2022-12-07T20:09:14;6.40;76.50
66140;DHT22;52945;51.908;8.364;2022-12-07T20:12:14;6.30;76.40
66140;DHT22;52945;51.908;8.364;2022-12-07T20:15:36;6.40;76.50
66140;DHT22;52945;51.908;8.364;2022-12-07T20:18:37;6.40;76.40
66140;DHT22;52945;51.908;8.364;2022-12-07T20:21:38;6.40;76.30
66140;DHT22;52945;51.908;8.364;2022-12-07T20:24:39;6.30;76.30
66140;DHT22;52945;51.908;8.364;2022-12-07T20:27:39;6.30;76.30
66140;DHT22;52945;51.908;8.364;2022-12-07T20:30:50;6.40;76.40
66140;DHT22;52945;51.908;8.364;2022-12-07T20:33:51;6.40;76.40
66140;DHT22;52945;51.908;8.364;2022-12-07T20:36:54;6.30;76.30
66140;DHT22;52945;51.908;8.364;2022-12-07T20:39:56;6.30;76.10
66140;DHT22;52945;51.908;8.364;2022-12-07T20:42:56;6.30;76.40
66140;DHT22;52945;51.908;8.364;2022-12-07T20:45:57;6.20;76.30
66140;DHT22;52945;51.908;8.364;2022-12-07T20:49:00;6.30;76.20
66140;DHT22;52945;51.908;8.364;2022-12-07T20:52:00;6.20;76.30
66140;DHT22;52945;51.908;8.364;2022-12-07T20:55:01;6.20;76.20
66140;DHT22;52945;51.908;8.364;2022-12-07T20:58:02;6.20;76.40
66140;DHT22;52945;51.908;8.364;2022-12-07T21:01:02;6.20;76.30
66140;DHT22;52945;51.908;8.364;2022-12-07T21:04:03;6.20;76.40
66140;DHT22;52945;51.908;8.364;2022-12-07T21:07:04;6.20;76.30
66140;DHT22;52945;51.908;8.364;2022-12-07T21:10:05;6.20;76.40
66140;DHT22;52945;51.908;8.364;2022-12-07T21:13:06;6.20;76.40